createdAt,value
2019-03-21T00:01:12.503Z,40.83
2019-03-21T00:05:18.718Z,37.10
2019-03-21T00:09:23.690Z,40.30
2019-03-21T00:13:28.702Z,38.33
2019-03-21T00:17:42.424Z,40.45
2019-03-21T00:21:47.421Z,41.70
2019-03-21T00:25:52.492Z,50.58
2019-03-21T00:29:58.446Z,51.37
2019-03-21T00:34:03.454Z,44.05
2019-03-21T00:38:08.589Z,38.83
2019-03-21T00:42:13.580Z,44.85
2019-03-21T00:46:18.553Z,48.90
2019-03-21T00:50:26.675Z,48.92
2019-03-21T00:54:31.655Z,54.42
2019-03-21T00:58:36.663Z,46.88
2019-03-21T01:02:41.629Z,45.15
2019-03-21T01:06:46.631Z,45.10
2019-03-21T01:10:52.251Z,51.50
2019-03-21T01:14:57.251Z,57.58
2019-03-21T01:19:02.232Z,56.65
2019-03-21T01:23:07.323Z,50.38
2019-03-21T01:27:12.292Z,48.90
2019-03-21T01:31:17.294Z,52.48
2019-03-21T01:35:22.315Z,48.10
2019-03-21T01:39:27.299Z,54.20
2019-03-21T01:43:32.322Z,53.17
2019-03-21T01:47:37.299Z,48.28
2019-03-21T01:51:42.344Z,51.10
2019-03-21T01:55:47.329Z,53.63
2019-03-21T01:59:52.329Z,51.02
2019-03-21T02:03:57.351Z,53.55
2019-03-21T02:08:03.407Z,50.43
2019-03-21T02:12:08.417Z,46.05
2019-03-21T02:16:14.478Z,51.75
2019-03-21T02:20:21.793Z,51.90
2019-03-21T02:24:26.761Z,53.83
2019-03-21T02:28:31.744Z,52.83
2019-03-21T02:32:36.729Z,52.88
2019-03-21T02:36:42.117Z,56.65
2019-03-21T02:40:48.818Z,54.35
2019-03-21T02:45:07.632Z,53.63
2019-03-21T02:49:01.385Z,59.15
2019-03-21T02:53:07.472Z,59.60
2019-03-21T02:57:12.474Z,61.42
2019-03-21T03:01:17.489Z,62.80
2019-03-21T03:05:26.346Z,67.87
2019-03-21T03:09:31.431Z,61.63
2019-03-21T03:13:36.858Z,64.25
2019-03-21T03:17:41.915Z,62.75
2019-03-21T03:21:46.915Z,67.30
2019-03-21T03:25:51.931Z,66.55
2019-03-21T03:29:56.910Z,64.12
2019-03-21T03:34:01.960Z,68.85
2019-03-21T03:38:06.911Z,66.62
2019-03-21T03:42:12.455Z,62.25
2019-03-21T03:46:17.454Z,64.62
2019-03-21T03:50:22.467Z,65.62
2019-03-21T03:54:27.515Z,66.07
2019-03-21T03:58:35.568Z,70.75
2019-03-21T04:02:40.593Z,70.05
2019-03-21T04:06:45.597Z,68.37
2019-03-21T04:10:54.850Z,69.77
2019-03-21T04:14:59.824Z,63.80
2019-03-21T04:19:04.893Z,66.00
2019-03-21T04:23:10.444Z,64.00
2019-03-21T04:27:15.443Z,65.00
2019-03-21T04:31:20.419Z,73.72
2019-03-21T04:35:25.401Z,67.37
2019-03-21T04:39:30.443Z,68.12
2019-03-21T04:43:36.933Z,68.67
2019-03-21T04:47:41.923Z,64.65
2019-03-21T04:51:46.925Z,69.50
2019-03-21T04:55:51.909Z,66.70
2019-03-21T04:59:56.893Z,79.55
2019-03-21T05:04:01.862Z,70.97
2019-03-21T05:08:06.859Z,70.62
2019-03-21T05:12:11.829Z,71.37
2019-03-21T05:16:16.829Z,82.15
2019-03-21T05:20:28.171Z,69.15
2019-03-21T05:24:33.137Z,66.42
2019-03-21T05:28:38.151Z,70.97
2019-03-21T05:32:43.128Z,76.80
2019-03-21T05:36:50.338Z,68.30
2019-03-21T05:40:54.732Z,70.65
2019-03-21T05:44:59.714Z,72.47
2019-03-21T05:49:04.704Z,61.13
2019-03-21T05:53:09.968Z,68.60
2019-03-21T05:57:14.949Z,69.07
2019-03-21T06:01:19.990Z,67.20
2019-03-21T06:05:25.271Z,67.62
2019-03-21T06:09:30.248Z,63.08
2019-03-21T06:13:35.453Z,60.40
2019-03-21T06:17:41.485Z,72.95
2019-03-21T06:21:55.621Z,66.20
2019-03-21T06:26:06.310Z,71.17
2019-03-21T06:30:11.613Z,65.15
2019-03-21T06:34:16.600Z,69.50
2019-03-21T06:38:21.667Z,68.05
2019-03-21T06:42:26.632Z,66.77
2019-03-21T06:46:32.876Z,61.88
2019-03-21T06:50:37.845Z,69.70
2019-03-21T06:54:42.837Z,68.20
2019-03-21T06:58:47.813Z,62.10
2019-03-21T07:02:53.860Z,53.58
2019-03-21T07:07:07.695Z,63.25
2019-03-21T07:11:05.463Z,57.43
2019-03-21T07:15:12.567Z,53.75
2019-03-21T07:19:18.503Z,47.43
2019-03-21T07:23:23.492Z,59.05
2019-03-21T07:27:28.464Z,46.18
2019-03-21T07:31:33.509Z,45.17
2019-03-21T07:35:38.465Z,49.35
2019-03-21T07:39:43.472Z,43.83
2019-03-21T07:43:48.513Z,41.10
2019-03-21T07:47:53.508Z,39.10
2019-03-21T07:51:58.548Z,37.05
2019-03-21T07:56:03.516Z,34.90
2019-03-21T08:00:11.360Z,30.35
2019-03-21T08:04:17.404Z,35.48
2019-03-21T08:08:22.407Z,32.38
2019-03-21T08:12:27.378Z,31.77
2019-03-21T08:16:32.369Z,28.60
2019-03-21T08:20:37.373Z,26.50
2019-03-21T08:24:42.349Z,28.73
2019-03-21T08:28:47.319Z,27.77
2019-03-21T08:32:52.308Z,32.25
2019-03-21T08:36:57.273Z,25.97
2019-03-21T08:41:03.228Z,30.82
2019-03-21T08:45:08.672Z,32.67
2019-03-21T08:49:13.654Z,32.20
2019-03-21T08:53:18.629Z,33.92
2019-03-21T08:57:23.612Z,33.80
2019-03-21T09:01:28.600Z,39.35
2019-03-21T09:05:33.593Z,34.43
2019-03-21T09:09:38.573Z,38.40
2019-03-21T09:13:43.546Z,35.50
2019-03-21T09:17:48.540Z,43.63
2019-03-21T09:21:53.526Z,40.35
2019-03-21T09:25:58.526Z,37.67
2019-03-21T09:30:05.430Z,40.58
2019-03-21T09:34:10.418Z,41.30
2019-03-21T09:38:15.412Z,39.70
2019-03-21T09:42:21.461Z,42.03
2019-03-21T09:46:26.454Z,39.38
2019-03-21T09:50:31.513Z,38.05
2019-03-21T09:54:36.493Z,41.00
2019-03-21T09:58:41.633Z,31.95
2019-03-21T10:02:46.643Z,34.40
2019-03-21T10:06:51.605Z,32.03
2019-03-21T10:10:56.595Z,34.13
2019-03-21T10:15:01.615Z,27.27
2019-03-21T10:19:07.546Z,27.20
2019-03-21T10:23:12.575Z,31.12
2019-03-21T10:27:17.529Z,25.95
2019-03-21T10:31:22.521Z,28.70
2019-03-21T10:35:27.520Z,29.55
2019-03-21T10:39:32.491Z,26.62
2019-03-21T10:43:37.472Z,25.25
2019-03-21T10:47:42.450Z,25.43
2019-03-21T10:51:54.828Z,32.65
2019-03-21T10:55:54.067Z,27.90
2019-03-21T11:00:01.604Z,28.80
2019-03-21T11:04:05.658Z,29.85
2019-03-21T11:08:10.661Z,26.97
2019-03-21T11:12:15.636Z,24.72
2019-03-21T11:16:20.634Z,29.95
2019-03-21T11:20:28.686Z,25.62
2019-03-21T11:24:33.666Z,24.60
2019-03-21T11:28:38.664Z,28.83
2019-03-21T11:32:43.630Z,27.50
2019-03-21T11:36:48.617Z,28.57
2019-03-21T11:40:53.618Z,33.38
2019-03-21T11:44:58.578Z,25.12
2019-03-21T11:49:03.739Z,26.68
2019-03-21T11:53:08.729Z,28.80
2019-03-21T11:57:13.720Z,35.55
2019-03-21T12:01:18.701Z,25.97
2019-03-21T12:05:23.701Z,27.17
2019-03-21T12:09:28.663Z,26.65
2019-03-21T12:13:33.661Z,31.17
2019-03-21T12:17:38.640Z,37.75
2019-03-21T12:21:43.642Z,30.15
2019-03-21T12:25:48.825Z,28.30
2019-03-21T12:29:53.849Z,31.30
2019-03-21T12:33:59.317Z,30.82
2019-03-21T12:38:04.869Z,32.25
2019-03-21T12:42:09.841Z,35.33
2019-03-21T12:46:14.835Z,31.15
2019-03-21T12:50:20.338Z,30.48
2019-03-21T12:54:25.893Z,33.40
2019-03-21T12:58:31.140Z,35.75
2019-03-21T13:02:36.288Z,35.15
2019-03-21T13:06:41.395Z,35.20
2019-03-21T13:10:46.475Z,29.52
2019-03-21T13:14:51.786Z,31.95
2019-03-21T13:18:57.190Z,36.65
2019-03-21T13:23:02.424Z,34.50
2019-03-21T13:27:08.705Z,32.13
2019-03-21T13:31:13.943Z,32.20
2019-03-21T13:35:18.956Z,30.35
2019-03-21T13:39:24.074Z,28.57
2019-03-21T13:43:29.268Z,31.57
2019-03-21T13:47:34.815Z,31.85
2019-03-21T13:51:40.083Z,33.88
2019-03-21T13:55:45.136Z,33.38
2019-03-21T13:59:50.191Z,32.90
2019-03-21T14:03:55.212Z,26.37
2019-03-21T14:08:00.432Z,31.75
2019-03-21T14:12:06.016Z,36.77
2019-03-21T14:16:10.949Z,30.68
2019-03-21T14:20:16.375Z,31.73
2019-03-21T14:24:21.565Z,35.08
2019-03-21T14:28:26.633Z,33.30
2019-03-21T14:32:31.744Z,30.97
2019-03-21T14:36:36.894Z,30.48
2019-03-21T14:40:42.034Z,30.82
2019-03-21T14:44:47.284Z,29.55
2019-03-21T14:48:52.736Z,28.83
2019-03-21T14:52:57.919Z,26.93
2019-03-21T14:57:03.333Z,32.38
2019-03-21T15:01:08.787Z,29.80
2019-03-21T15:05:14.274Z,32.35
2019-03-21T15:09:20.922Z,31.35
2019-03-21T15:13:27.562Z,25.65
2019-03-21T15:17:33.158Z,26.85
2019-03-21T15:21:38.717Z,29.52
2019-03-21T15:25:44.323Z,27.25
2019-03-21T15:29:50.257Z,27.60
2019-03-21T15:33:57.018Z,30.48
2019-03-21T15:38:02.594Z,30.20
2019-03-21T15:42:08.228Z,29.07
2019-03-21T15:46:13.785Z,32.45
2019-03-21T15:50:27.839Z,29.67
2019-03-21T15:54:32.985Z,32.85
2019-03-21T15:58:39.156Z,33.23
2019-03-21T16:02:44.405Z,30.80
2019-03-21T16:06:49.959Z,27.52
2019-03-21T16:10:56.947Z,30.40
2019-03-21T16:15:03.518Z,26.15
2019-03-21T16:19:09.184Z,31.68
2019-03-21T16:23:14.637Z,31.73
2019-03-21T16:27:19.777Z,27.37
2019-03-21T16:31:25.236Z,27.42
2019-03-21T16:35:30.791Z,32.08
2019-03-21T16:39:36.245Z,29.02
2019-03-21T16:43:41.692Z,27.93
2019-03-21T16:47:46.804Z,29.57
2019-03-21T16:51:51.884Z,28.32
2019-03-21T16:55:57.441Z,30.52
2019-03-21T17:00:03.304Z,27.55
2019-03-21T17:04:08.960Z,26.90
2019-03-21T17:08:14.519Z,28.45
2019-03-21T17:12:21.709Z,26.50
2019-03-21T17:16:27.396Z,26.90
2019-03-21T17:20:33.032Z,30.52
2019-03-21T17:24:38.598Z,30.00
2019-03-21T17:28:44.339Z,29.65
2019-03-21T17:32:51.430Z,29.07
2019-03-21T17:36:57.752Z,29.75
2019-03-21T17:41:06.227Z,30.62
2019-03-21T17:45:18.247Z,30.85
2019-03-21T17:49:23.897Z,33.63
2019-03-21T17:53:29.652Z,37.60
2019-03-21T17:57:35.310Z,38.00
2019-03-21T18:01:41.173Z,33.48
2019-03-21T18:05:46.874Z,34.00
2019-03-21T18:09:54.229Z,35.30
2019-03-21T18:13:59.992Z,35.23
2019-03-21T18:18:05.957Z,36.30
2019-03-21T18:22:11.614Z,35.33
2019-03-21T18:26:17.678Z,35.38
2019-03-21T18:30:23.263Z,37.17
2019-03-21T18:34:30.631Z,38.23
2019-03-21T18:38:37.488Z,38.00
2019-03-21T18:42:44.856Z,36.38
2019-03-21T18:46:50.679Z,38.02
2019-03-21T18:50:56.437Z,38.58
2019-03-21T18:55:06.731Z,40.17
2019-03-21T18:59:13.488Z,43.23
2019-03-21T19:03:21.916Z,39.75
2019-03-21T19:07:28.407Z,42.73
2019-03-21T19:11:34.250Z,39.45
2019-03-21T19:15:42.981Z,40.75
2019-03-21T19:19:48.941Z,39.85
2019-03-21T19:23:56.857Z,41.75
2019-03-21T19:28:03.947Z,44.58
2019-03-21T19:32:09.812Z,46.55
2019-03-21T19:36:15.773Z,38.08
2019-03-21T19:40:22.247Z,43.42
2019-03-21T19:44:28.015Z,44.65
2019-03-21T19:48:35.308Z,48.40
2019-03-21T19:52:43.907Z,41.85
2019-03-21T19:56:52.226Z,43.35
2019-03-21T20:00:58.421Z,51.90
2019-03-21T20:05:06.434Z,45.52
2019-03-21T20:09:13.371Z,48.15
2019-03-21T20:13:19.183Z,48.17
2019-03-21T20:17:25.044Z,50.28
2019-03-21T20:21:30.652Z,45.43
2019-03-21T20:25:42.767Z,42.53
2019-03-21T20:29:44.064Z,48.17
2019-03-21T20:33:49.724Z,44.27
2019-03-21T20:37:56.507Z,50.63
2019-03-21T20:42:02.271Z,53.48
2019-03-21T20:46:08.689Z,44.93
2019-03-21T20:50:14.642Z,47.70
2019-03-21T20:54:20.265Z,45.30
2019-03-21T20:58:25.820Z,42.13
2019-03-21T21:02:31.520Z,46.18
2019-03-21T21:06:37.338Z,40.30
2019-03-21T21:10:42.998Z,43.80
2019-03-21T21:14:48.963Z,47.48
2019-03-21T21:18:54.623Z,47.95
2019-03-21T21:23:00.218Z,46.05
2019-03-21T21:27:05.730Z,45.83
2019-03-21T21:31:12.413Z,50.30
2019-03-21T21:35:18.263Z,37.30
2019-03-21T21:39:26.390Z,49.58
2019-03-21T21:43:33.788Z,47.20
2019-03-21T21:47:39.447Z,45.50
2019-03-21T21:51:45.127Z,47.60
2019-03-21T21:55:51.683Z,48.23
2019-03-21T21:59:57.246Z,49.98
2019-03-21T22:04:04.999Z,52.17
2019-03-21T22:08:09.709Z,52.73
2019-03-21T22:12:15.341Z,44.33
2019-03-21T22:16:21.712Z,48.68
2019-03-21T22:20:26.817Z,49.75
2019-03-21T22:24:32.949Z,47.98
2019-03-21T22:28:39.041Z,49.70
2019-03-21T22:32:44.216Z,43.95
2019-03-21T22:36:49.818Z,47.30
2019-03-21T22:40:54.911Z,47.33
2019-03-21T22:44:59.982Z,46.77
2019-03-21T22:49:05.539Z,44.50
2019-03-21T22:53:10.889Z,46.05
2019-03-21T22:57:16.341Z,41.85
2019-03-21T23:01:21.312Z,39.63
2019-03-21T23:05:26.289Z,50.25
2019-03-21T23:09:31.436Z,45.17
2019-03-21T23:13:36.404Z,43.92
2019-03-21T23:17:41.448Z,43.73
2019-03-21T23:21:46.437Z,42.23
2019-03-21T23:25:51.422Z,48.15
2019-03-21T23:29:56.431Z,41.42
2019-03-21T23:34:01.489Z,39.98
2019-03-21T23:38:06.560Z,38.30
2019-03-21T23:42:11.567Z,42.33
2019-03-21T23:46:16.530Z,40.95
2019-03-21T23:50:21.530Z,38.50
2019-03-21T23:54:26.485Z,35.88
2019-03-21T23:58:31.526Z,40.03
